createdAt,value
2019-04-10T00:00:23.914Z,64.78
2019-04-10T00:01:23.902Z,65.09
2019-04-10T00:02:23.890Z,64.86
2019-04-10T00:03:32.328Z,65.37
2019-04-10T00:04:25.224Z,65.09
2019-04-10T00:05:23.857Z,65.30
2019-04-10T00:06:23.844Z,65.43
2019-04-10T00:07:23.835Z,64.78
2019-04-10T00:08:23.822Z,65.43
2019-04-10T00:09:23.811Z,65.81
2019-04-10T00:10:23.817Z,65.74
2019-04-10T00:11:24.821Z,65.43
2019-04-10T00:12:23.781Z,65.64
2019-04-10T00:13:24.702Z,65.67
2019-04-10T00:14:24.057Z,65.74
2019-04-10T00:15:24.321Z,65.74
2019-04-10T00:16:24.491Z,65.88
2019-04-10T00:17:23.719Z,65.33
2019-04-10T00:18:24.139Z,65.33
2019-04-10T00:19:23.716Z,65.74
2019-04-10T00:20:24.565Z,65.84
2019-04-10T00:21:23.672Z,65.53
2019-04-10T00:22:24.311Z,65.53
2019-04-10T00:23:24.762Z,65.46
2019-04-10T00:24:23.989Z,65.88
2019-04-10T00:25:24.423Z,65.88
2019-04-10T00:26:23.819Z,65.67
2019-04-10T00:27:23.604Z,66.49
2019-04-10T00:28:23.593Z,65.67
2019-04-10T00:29:24.515Z,65.98
2019-04-10T00:30:23.598Z,66.49
2019-04-10T00:31:24.332Z,66.28
2019-04-10T00:32:23.800Z,66.08
2019-04-10T00:33:23.557Z,65.98
2019-04-10T00:34:23.524Z,66.42
2019-04-10T00:35:23.662Z,65.70
2019-04-10T00:36:23.501Z,66.08
2019-04-10T00:37:28.159Z,66.31
2019-04-10T00:38:24.477Z,65.80
2019-04-10T00:39:23.478Z,66.21
2019-04-10T00:40:23.670Z,66.39
2019-04-10T00:41:23.981Z,66.49
2019-04-10T00:42:23.433Z,65.80
2019-04-10T00:43:24.517Z,66.21
2019-04-10T00:44:23.761Z,66.42
2019-04-10T00:45:23.420Z,65.70
2019-04-10T00:46:24.283Z,66.11
2019-04-10T00:47:23.374Z,65.91
2019-04-10T00:48:23.948Z,66.42
2019-04-10T00:49:23.930Z,66.42
2019-04-10T00:50:23.381Z,66.21
2019-04-10T00:51:23.554Z,66.35
2019-04-10T00:52:24.083Z,66.52
2019-04-10T00:53:23.337Z,66.21
2019-04-10T00:54:23.741Z,66.11
2019-04-10T00:55:23.785Z,66.52
2019-04-10T00:56:24.282Z,66.01
2019-04-10T00:57:23.582Z,65.80
2019-04-10T00:58:23.254Z,66.63
2019-04-10T00:59:24.137Z,65.91
2019-04-10T01:00:23.581Z,66.31
2019-04-10T01:01:23.683Z,66.55
2019-04-10T01:02:23.209Z,66.73
2019-04-10T01:03:23.613Z,66.45
2019-04-10T01:04:23.178Z,66.63
2019-04-10T01:05:23.167Z,66.45
2019-04-10T01:06:24.111Z,66.14
2019-04-10T01:07:33.704Z,66.35
2019-04-10T01:08:24.495Z,66.76
2019-04-10T01:09:23.657Z,66.66
2019-04-10T01:10:23.138Z,66.66
2019-04-10T01:11:23.237Z,66.55
2019-04-10T01:12:23.630Z,67.27
2019-04-10T01:13:23.075Z,66.76
2019-04-10T01:14:23.403Z,67.17
2019-04-10T01:15:23.051Z,66.97
2019-04-10T01:16:23.177Z,66.86
2019-04-10T01:17:23.031Z,66.55
2019-04-10T01:18:23.397Z,67.07
2019-04-10T01:19:23.849Z,67.07
2019-04-10T01:20:23.816Z,67.07
2019-04-10T01:21:23.185Z,66.97
2019-04-10T01:22:23.937Z,67.00
2019-04-10T01:23:22.958Z,67.21
2019-04-10T01:24:23.745Z,67.30
2019-04-10T01:25:24.122Z,67.21
2019-04-10T01:26:23.296Z,67.10
2019-04-10T01:27:23.662Z,67.51
2019-04-10T01:28:22.901Z,67.41
2019-04-10T01:29:22.890Z,67.00
2019-04-10T01:30:22.876Z,67.13
2019-04-10T01:31:23.297Z,67.44
2019-04-10T01:32:23.791Z,67.21
2019-04-10T01:33:22.848Z,67.44
2019-04-10T01:34:22.838Z,67.00
2019-04-10T01:35:22.820Z,67.03
2019-04-10T01:36:22.873Z,67.61
2019-04-10T01:37:22.991Z,67.51
2019-04-10T01:38:22.782Z,67.34
2019-04-10T01:39:22.773Z,67.54
2019-04-10T01:40:23.419Z,67.54
2019-04-10T01:41:23.804Z,67.96
2019-04-10T01:42:22.907Z,67.44
2019-04-10T01:43:22.724Z,67.96
2019-04-10T01:44:22.798Z,67.65
2019-04-10T01:45:22.703Z,67.65
2019-04-10T01:46:22.693Z,67.54
2019-04-10T01:47:23.424Z,68.27
2019-04-10T01:48:23.780Z,68.37
2019-04-10T01:49:22.655Z,67.65
2019-04-10T01:50:22.648Z,67.75
2019-04-10T01:51:23.413Z,68.06
2019-04-10T01:52:22.771Z,67.65
2019-04-10T01:53:22.631Z,67.54
2019-04-10T01:54:22.779Z,67.65
2019-04-10T01:55:25.768Z,67.54
2019-04-10T01:56:29.432Z,68.06
2019-04-10T01:57:24.065Z,67.85
2019-04-10T01:58:23.181Z,67.75
2019-04-10T01:59:23.392Z,67.54
2019-04-10T02:00:23.598Z,67.96
2019-04-10T02:01:22.517Z,67.75
2019-04-10T02:02:23.178Z,68.19
2019-04-10T02:03:22.493Z,68.27
2019-04-10T02:04:22.803Z,68.19
2019-04-10T02:05:22.804Z,67.88
2019-04-10T02:06:22.458Z,67.54
2019-04-10T02:07:23.113Z,67.78
2019-04-10T02:08:23.579Z,68.12
2019-04-10T02:09:23.433Z,68.40
2019-04-10T02:10:22.415Z,68.23
2019-04-10T02:11:22.405Z,68.95
2019-04-10T02:12:22.846Z,68.54
2019-04-10T02:13:23.322Z,68.43
2019-04-10T02:14:22.469Z,68.12
2019-04-10T02:15:22.353Z,68.43
2019-04-10T02:16:22.894Z,68.33
2019-04-10T02:17:22.335Z,68.43
2019-04-10T02:18:23.435Z,68.33
2019-04-10T02:19:22.311Z,68.43
2019-04-10T02:20:22.974Z,68.12
2019-04-10T02:21:23.387Z,68.23
2019-04-10T02:22:22.559Z,68.43
2019-04-10T02:23:22.594Z,68.12
2019-04-10T02:24:22.969Z,68.54
2019-04-10T02:25:22.261Z,68.43
2019-04-10T02:26:22.355Z,68.43
2019-04-10T02:27:22.498Z,68.64
2019-04-10T02:28:22.767Z,68.74
2019-04-10T02:29:22.196Z,68.46
2019-04-10T02:30:23.904Z,68.54
2019-04-10T02:31:24.142Z,68.74
2019-04-10T02:32:22.163Z,68.77
2019-04-10T02:33:23.258Z,68.36
2019-04-10T02:34:23.218Z,68.98
2019-04-10T02:35:24.594Z,68.88
2019-04-10T02:36:23.521Z,68.36
2019-04-10T02:37:22.911Z,68.46
2019-04-10T02:38:38.674Z,68.64
2019-04-10T02:39:27.443Z,68.67
2019-04-10T02:40:23.582Z,68.57
2019-04-10T02:41:22.167Z,68.88
2019-04-10T02:42:22.597Z,68.88
2019-04-10T02:43:23.274Z,68.77
2019-04-10T02:44:22.926Z,68.77
2019-04-10T02:45:22.143Z,69.01
2019-04-10T02:46:22.153Z,69.01
2019-04-10T02:47:23.076Z,69.43
2019-04-10T02:48:23.364Z,69.84
2019-04-10T02:49:22.506Z,69.53
2019-04-10T02:50:21.984Z,69.64
2019-04-10T02:51:23.641Z,70.15
2019-04-10T02:52:22.648Z,69.95
2019-04-10T02:53:23.260Z,70.08
2019-04-10T02:54:21.912Z,70.15
2019-04-10T02:55:23.030Z,70.67
2019-04-10T02:56:23.758Z,71.01
2019-04-10T02:57:22.016Z,71.19
2019-04-10T02:58:22.267Z,71.43
2019-04-10T02:59:23.318Z,71.12
2019-04-10T03:00:22.535Z,72.25
2019-04-10T03:01:23.500Z,72.46
2019-04-10T03:02:22.097Z,72.36
2019-04-10T03:03:22.454Z,71.63
2019-04-10T03:04:22.123Z,72.25
2019-04-10T03:05:23.713Z,71.73
2019-04-10T03:06:22.841Z,72.15
2019-04-10T03:07:22.105Z,72.36
2019-04-10T03:08:38.279Z,72.60
2019-04-10T03:09:37.126Z,72.25
2019-04-10T03:10:30.022Z,72.29
2019-04-10T03:11:24.355Z,72.08
2019-04-10T03:12:21.978Z,72.60
2019-04-10T03:13:21.958Z,72.08
2019-04-10T03:14:21.687Z,72.60
2019-04-10T03:15:23.096Z,72.60
2019-04-10T03:16:21.711Z,73.11
2019-04-10T03:17:21.652Z,72.71
2019-04-10T03:18:21.638Z,73.32
2019-04-10T03:19:21.627Z,73.32
2019-04-10T03:20:22.461Z,72.91
2019-04-10T03:21:22.777Z,73.63
2019-04-10T03:22:21.594Z,73.22
2019-04-10T03:23:21.582Z,73.84
2019-04-10T03:24:21.568Z,73.63
2019-04-10T03:25:21.563Z,73.36
2019-04-10T03:26:21.581Z,73.77
2019-04-10T03:27:22.576Z,73.74
2019-04-10T03:28:21.527Z,74.19
2019-04-10T03:29:21.972Z,74.81
2019-04-10T03:30:23.459Z,73.98
2019-04-10T03:31:22.953Z,74.71
2019-04-10T03:32:23.090Z,74.71
2019-04-10T03:33:26.563Z,74.71
2019-04-10T03:34:23.086Z,74.71
2019-04-10T03:35:21.445Z,74.60
2019-04-10T03:36:21.431Z,74.53
2019-04-10T03:37:22.357Z,74.74
2019-04-10T03:38:21.732Z,74.63
2019-04-10T03:39:21.685Z,74.53
2019-04-10T03:40:21.645Z,74.63
2019-04-10T03:41:21.385Z,74.43
2019-04-10T03:42:21.383Z,74.95
2019-04-10T03:43:21.613Z,74.95
2019-04-10T03:44:21.342Z,74.95
2019-04-10T03:45:22.389Z,75.71
2019-04-10T03:46:21.503Z,75.40
2019-04-10T03:47:21.329Z,76.23
2019-04-10T03:48:21.299Z,76.23
2019-04-10T03:49:22.103Z,76.23
2019-04-10T03:50:21.277Z,76.12
2019-04-10T03:51:21.264Z,76.16
2019-04-10T03:52:21.270Z,76.12
2019-04-10T03:53:22.308Z,77.68
2019-04-10T03:54:21.242Z,79.20
2019-04-10T03:55:21.236Z,78.06
2019-04-10T03:56:21.403Z,76.92
2019-04-10T03:57:21.251Z,75.98
2019-04-10T03:58:21.185Z,75.67
2019-04-10T03:59:22.273Z,75.26
2019-04-10T04:00:22.356Z,75.40
2019-04-10T04:01:21.149Z,75.81
2019-04-10T04:02:21.919Z,76.43
2019-04-10T04:03:21.128Z,75.92
2019-04-10T04:04:21.649Z,76.43
2019-04-10T04:05:21.103Z,76.75
2019-04-10T04:06:21.683Z,76.23
2019-04-10T04:07:21.080Z,76.85
2019-04-10T04:08:21.581Z,76.75
2019-04-10T04:09:21.680Z,76.64
2019-04-10T04:10:21.046Z,76.89
2019-04-10T04:11:21.772Z,75.85
2019-04-10T04:12:21.025Z,76.85
2019-04-10T04:13:21.667Z,77.02
2019-04-10T04:14:21.984Z,77.23
2019-04-10T04:15:21.965Z,78.27
2019-04-10T04:16:20.980Z,77.40
2019-04-10T04:17:22.135Z,77.54
2019-04-10T04:18:21.382Z,77.64
2019-04-10T04:19:21.800Z,77.85
2019-04-10T04:20:21.186Z,78.16
2019-04-10T04:21:20.923Z,77.95
2019-04-10T04:22:20.973Z,78.61
2019-04-10T04:23:21.492Z,78.58
2019-04-10T04:24:22.553Z,78.41
2019-04-10T04:25:21.923Z,78.99
2019-04-10T04:26:21.259Z,78.58
2019-04-10T04:27:21.604Z,78.47
2019-04-10T04:28:20.863Z,78.20
2019-04-10T04:29:20.832Z,79.13
2019-04-10T04:30:20.821Z,78.61
2019-04-10T04:31:20.810Z,79.13
2019-04-10T04:32:21.780Z,78.92
2019-04-10T04:33:21.140Z,81.11
2019-04-10T04:34:20.946Z,82.94
2019-04-10T04:35:20.763Z,80.55
2019-04-10T04:36:20.752Z,78.75
2019-04-10T04:37:20.910Z,78.27
2019-04-10T04:38:20.731Z,77.85
2019-04-10T04:39:26.205Z,78.27
2019-04-10T04:40:21.830Z,77.85
2019-04-10T04:41:20.697Z,78.16
2019-04-10T04:42:20.683Z,78.09
2019-04-10T04:43:21.734Z,78.61
2019-04-10T04:44:20.680Z,79.17
2019-04-10T04:45:21.541Z,79.13
2019-04-10T04:46:20.639Z,79.06
2019-04-10T04:47:20.630Z,79.13
2019-04-10T04:48:21.846Z,79.24
2019-04-10T04:49:20.759Z,78.96
2019-04-10T04:50:20.596Z,78.92
2019-04-10T04:51:20.583Z,78.92
2019-04-10T04:52:20.575Z,78.92
2019-04-10T04:53:20.561Z,79.03
2019-04-10T04:54:21.324Z,78.86
2019-04-10T04:55:20.538Z,79.06
2019-04-10T04:56:20.527Z,78.96
2019-04-10T04:57:20.537Z,78.96
2019-04-10T04:58:20.502Z,79.06
2019-04-10T04:59:20.640Z,79.06
2019-04-10T05:00:21.498Z,78.82
2019-04-10T05:01:21.069Z,78.86
2019-04-10T05:02:20.459Z,79.06
2019-04-10T05:03:20.815Z,79.58
2019-04-10T05:04:20.525Z,80.00
2019-04-10T05:05:20.477Z,79.03
2019-04-10T05:06:20.410Z,78.96
2019-04-10T05:07:20.547Z,78.96
2019-04-10T05:08:20.388Z,79.38
2019-04-10T05:09:30.153Z,79.27
2019-04-10T05:10:21.387Z,79.06
2019-04-10T05:11:20.540Z,78.89
2019-04-10T05:12:20.369Z,78.96
2019-04-10T05:13:20.333Z,79.10
2019-04-10T05:14:20.323Z,79.90
2019-04-10T05:15:20.641Z,79.76
2019-04-10T05:16:20.658Z,81.63
2019-04-10T05:17:20.286Z,81.11
2019-04-10T05:18:21.231Z,80.07
2019-04-10T05:19:21.081Z,78.37
2019-04-10T05:20:20.283Z,78.27
2019-04-10T05:21:21.318Z,78.16
2019-04-10T05:22:20.229Z,77.99
2019-04-10T05:23:20.254Z,78.30
2019-04-10T05:24:20.209Z,77.99
2019-04-10T05:25:21.071Z,78.51
2019-04-10T05:26:20.775Z,78.30
2019-04-10T05:27:20.176Z,78.51
2019-04-10T05:28:20.443Z,78.30
2019-04-10T05:29:20.151Z,78.20
2019-04-10T05:30:20.671Z,78.41
2019-04-10T05:31:20.128Z,78.30
2019-04-10T05:32:21.326Z,78.51
2019-04-10T05:33:20.565Z,78.65
2019-04-10T05:34:20.096Z,78.09
2019-04-10T05:35:20.101Z,78.30
2019-04-10T05:36:20.074Z,78.41
2019-04-10T05:37:21.193Z,78.41
2019-04-10T05:38:20.758Z,78.27
2019-04-10T05:39:20.041Z,78.30
2019-04-10T05:40:20.045Z,77.85
2019-04-10T05:41:20.040Z,77.68
2019-04-10T05:42:20.603Z,77.75
2019-04-10T05:43:20.030Z,77.23
2019-04-10T05:44:20.190Z,77.75
2019-04-10T05:45:21.143Z,77.54
2019-04-10T05:46:21.520Z,77.54
2019-04-10T05:47:19.949Z,77.12
2019-04-10T05:48:22.474Z,77.64
2019-04-10T05:49:20.663Z,77.44
2019-04-10T05:50:19.934Z,76.92
2019-04-10T05:51:19.904Z,76.71
2019-04-10T05:52:20.347Z,76.89
2019-04-10T05:53:20.387Z,81.62
2019-04-10T05:54:19.866Z,81.93
2019-04-10T05:55:20.430Z,77.75
2019-04-10T05:56:20.699Z,75.57
2019-04-10T05:57:20.238Z,74.74
2019-04-10T05:58:19.822Z,74.53
2019-04-10T05:59:19.814Z,74.84
2019-04-10T06:00:20.786Z,74.95
2019-04-10T06:01:31.423Z,74.11
2019-04-10T06:02:20.775Z,74.63
2019-04-10T06:03:20.712Z,74.63
2019-04-10T06:04:19.753Z,73.46
2019-04-10T06:05:20.302Z,72.05
2019-04-10T06:06:20.031Z,70.78
2019-04-10T06:07:19.725Z,67.07
2019-04-10T06:08:19.708Z,64.61
2019-04-10T06:09:20.571Z,62.07
2019-04-10T06:10:19.750Z,61.94
2019-04-10T06:11:20.550Z,60.89
2019-04-10T06:12:20.323Z,59.59
2019-04-10T06:13:19.653Z,58.13
2019-04-10T06:14:19.641Z,58.23
2019-04-10T06:15:19.630Z,56.20
2019-04-10T06:16:19.677Z,55.33
2019-04-10T06:17:20.598Z,53.31
2019-04-10T06:18:20.706Z,53.92
2019-04-10T06:19:19.978Z,54.10
2019-04-10T06:20:20.816Z,52.87
2019-04-10T06:21:19.560Z,52.34
2019-04-10T06:22:20.740Z,52.11
2019-04-10T06:23:19.561Z,51.04
2019-04-10T06:24:20.403Z,50.50
2019-04-10T06:25:21.484Z,49.54
2019-04-10T06:26:19.951Z,48.44
2019-04-10T06:27:20.518Z,46.79
2019-04-10T06:28:19.476Z,45.83
2019-04-10T06:29:19.466Z,45.94
2019-04-10T06:30:19.753Z,45.20
2019-04-10T06:31:19.446Z,44.31
2019-04-10T06:32:19.453Z,45.26
2019-04-10T06:33:20.132Z,45.95
2019-04-10T06:34:20.515Z,45.53
2019-04-10T06:35:19.754Z,45.12
2019-04-10T06:36:19.581Z,43.65
2019-04-10T06:37:19.394Z,43.79
2019-04-10T06:38:19.364Z,42.43
2019-04-10T06:39:20.422Z,41.38
2019-04-10T06:40:22.511Z,38.91
2019-04-10T06:41:20.327Z,39.11
2019-04-10T06:42:20.311Z,38.82
2019-04-10T06:43:19.327Z,41.09
2019-04-10T06:44:19.549Z,40.99
2019-04-10T06:45:19.861Z,39.42
2019-04-10T06:46:20.131Z,38.97
2019-04-10T06:47:20.278Z,38.02
2019-04-10T06:48:19.316Z,37.50
2019-04-10T06:49:19.234Z,37.16
2019-04-10T06:50:19.223Z,35.93
2019-04-10T06:51:21.025Z,36.46
2019-04-10T06:52:19.200Z,36.29
2019-04-10T06:53:19.205Z,37.64
2019-04-10T06:54:19.188Z,37.65
2019-04-10T06:55:19.164Z,38.59
2019-04-10T06:56:19.151Z,37.37
2019-04-10T06:57:19.143Z,37.94
2019-04-10T06:58:20.106Z,36.39
2019-04-10T06:59:19.201Z,35.95
2019-04-10T07:00:26.140Z,34.92
2019-04-10T07:01:22.391Z,35.53
2019-04-10T07:02:25.619Z,35.75
2019-04-10T07:03:21.139Z,35.21
2019-04-10T07:04:21.866Z,35.53
2019-04-10T07:05:20.052Z,35.41
2019-04-10T07:06:22.334Z,34.56
2019-04-10T07:07:21.842Z,33.33
2019-04-10T07:08:22.185Z,33.53
2019-04-10T07:09:21.323Z,33.36
2019-04-10T07:10:27.326Z,34.76
2019-04-10T07:11:21.744Z,33.42
2019-04-10T07:12:18.970Z,33.22
2019-04-10T07:13:19.706Z,31.91
2019-04-10T07:14:18.970Z,31.88
2019-04-10T07:15:21.190Z,32.26
2019-04-10T07:16:20.011Z,33.31
2019-04-10T07:17:19.921Z,33.51
2019-04-10T07:18:20.612Z,31.99
2019-04-10T07:19:19.849Z,32.18
2019-04-10T07:20:20.638Z,32.46
2019-04-10T07:21:20.063Z,30.73
2019-04-10T07:22:18.855Z,31.41
2019-04-10T07:23:24.187Z,31.34
2019-04-10T07:24:20.825Z,31.05
2019-04-10T07:25:19.639Z,31.24
2019-04-10T07:26:29.118Z,30.96
2019-04-10T07:27:19.796Z,31.41
2019-04-10T07:28:19.519Z,30.32
2019-04-10T07:29:21.084Z,30.97
2019-04-10T07:30:24.093Z,33.23
2019-04-10T07:31:19.751Z,32.08
2019-04-10T07:32:19.465Z,31.14
2019-04-10T07:33:20.696Z,30.12
2019-04-10T07:34:22.020Z,30.36
2019-04-10T07:35:21.760Z,29.47
2019-04-10T07:36:18.701Z,29.25
2019-04-10T07:37:21.690Z,28.74
2019-04-10T07:38:21.197Z,28.94
2019-04-10T07:39:18.686Z,28.52
2019-04-10T07:40:18.740Z,28.53
2019-04-10T07:41:21.910Z,28.41
2019-04-10T07:42:28.389Z,28.09
2019-04-10T07:43:25.449Z,28.18
2019-04-10T07:44:19.629Z,27.37
2019-04-10T07:45:18.595Z,26.76
2019-04-10T07:46:18.584Z,27.15
2019-04-10T07:47:20.540Z,27.68
2019-04-10T07:48:18.559Z,27.89
2019-04-10T07:49:19.735Z,27.29
2019-04-10T07:50:18.558Z,28.01
2019-04-10T07:51:19.031Z,27.80
2019-04-10T07:52:20.085Z,27.92
2019-04-10T07:53:18.963Z,27.89
2019-04-10T07:54:21.244Z,27.89
2019-04-10T07:55:19.057Z,26.50
2019-04-10T07:56:20.807Z,28.00
2019-04-10T07:57:18.462Z,27.67
2019-04-10T07:58:19.397Z,26.34
2019-04-10T07:59:18.551Z,26.12
2019-04-10T08:00:18.424Z,26.83
2019-04-10T08:01:18.430Z,27.71
2019-04-10T08:02:18.402Z,28.84
2019-04-10T08:03:18.838Z,28.96
2019-04-10T08:04:18.395Z,30.18
2019-04-10T08:05:18.845Z,29.66
2019-04-10T08:06:18.378Z,29.14
2019-04-10T08:07:26.704Z,29.05
2019-04-10T08:08:19.449Z,29.44
2019-04-10T08:09:18.877Z,29.27
2019-04-10T08:10:18.314Z,30.58
2019-04-10T08:11:18.323Z,29.97
2019-04-10T08:12:19.007Z,28.77
2019-04-10T08:13:18.288Z,29.69
2019-04-10T08:14:18.269Z,31.03
2019-04-10T08:15:18.930Z,30.50
2019-04-10T08:16:18.996Z,30.10
2019-04-10T08:17:18.238Z,30.48
2019-04-10T08:18:18.923Z,28.23
2019-04-10T08:19:18.677Z,27.72
2019-04-10T08:20:18.214Z,28.23
2019-04-10T08:21:18.212Z,28.94
2019-04-10T08:22:18.184Z,28.53
2019-04-10T08:23:18.170Z,29.45
2019-04-10T08:24:18.221Z,30.47
2019-04-10T08:25:18.449Z,30.32
2019-04-10T08:26:18.366Z,28.18
2019-04-10T08:27:19.251Z,27.55
2019-04-10T08:28:18.121Z,26.32
2019-04-10T08:29:18.244Z,26.20
2019-04-10T08:30:18.093Z,25.50
2019-04-10T08:31:19.045Z,26.82
2019-04-10T08:32:18.193Z,25.72
2019-04-10T08:33:18.058Z,26.09
2019-04-10T08:34:18.047Z,25.49
2019-04-10T08:35:18.035Z,26.22
2019-04-10T08:36:18.042Z,26.22
2019-04-10T08:37:18.854Z,26.61
2019-04-10T08:38:18.006Z,27.00
2019-04-10T08:39:32.177Z,29.51
2019-04-10T08:40:19.119Z,27.97
2019-04-10T08:41:19.195Z,27.34
2019-04-10T08:42:18.905Z,26.62
2019-04-10T08:43:18.091Z,26.29
2019-04-10T08:44:17.934Z,26.08
2019-04-10T08:45:18.908Z,25.89
2019-04-10T08:46:17.934Z,25.50
2019-04-10T08:47:17.905Z,26.62
2019-04-10T08:48:17.892Z,27.77
2019-04-10T08:49:18.391Z,27.36
2019-04-10T08:50:17.876Z,26.07
2019-04-10T08:51:17.880Z,28.19
2019-04-10T08:52:17.850Z,28.77
2019-04-10T08:53:18.120Z,27.34
2019-04-10T08:54:18.472Z,27.74
2019-04-10T08:55:17.872Z,26.15
2019-04-10T08:56:18.434Z,26.73
2019-04-10T08:57:17.797Z,26.73
2019-04-10T08:58:18.838Z,26.50
2019-04-10T08:59:17.784Z,26.08
2019-04-10T09:00:18.621Z,26.53
2019-04-10T09:01:17.769Z,27.43
2019-04-10T09:02:18.021Z,26.61
2019-04-10T09:03:17.728Z,26.48
2019-04-10T09:04:17.925Z,25.46
2019-04-10T09:05:17.707Z,26.56
2019-04-10T09:06:17.718Z,25.25
2019-04-10T09:07:17.886Z,25.46
2019-04-10T09:08:17.677Z,25.66
2019-04-10T09:09:17.663Z,25.16
2019-04-10T09:10:18.529Z,25.37
2019-04-10T09:11:25.577Z,24.87
2019-04-10T09:12:19.759Z,25.79
2019-04-10T09:13:17.623Z,26.18
2019-04-10T09:14:17.620Z,25.67
2019-04-10T09:15:18.157Z,25.48
2019-04-10T09:16:18.407Z,25.65
2019-04-10T09:17:17.594Z,24.72
2019-04-10T09:18:17.893Z,24.22
2019-04-10T09:19:18.862Z,24.65
2019-04-10T09:20:18.419Z,25.44
2019-04-10T09:21:17.569Z,25.31
2019-04-10T09:22:17.539Z,23.32
2019-04-10T09:23:40.952Z,24.75
2019-04-10T09:24:19.523Z,26.18
2019-04-10T09:25:17.863Z,26.88
2019-04-10T09:26:17.485Z,26.29
2019-04-10T09:27:17.485Z,27.17
2019-04-10T09:28:18.190Z,27.77
2019-04-10T09:29:18.164Z,27.34
2019-04-10T09:30:18.429Z,26.20
2019-04-10T09:31:17.731Z,25.48
2019-04-10T09:32:18.119Z,26.18
2019-04-10T09:33:23.357Z,25.86
2019-04-10T09:34:18.393Z,25.44
2019-04-10T09:35:17.380Z,25.65
2019-04-10T09:36:18.346Z,26.33
2019-04-10T09:37:17.802Z,25.31
2019-04-10T09:38:17.343Z,25.05
2019-04-10T09:39:17.338Z,25.84
2019-04-10T09:40:18.337Z,25.91
2019-04-10T09:41:17.532Z,24.11
2019-04-10T09:42:17.334Z,25.39
2019-04-10T09:43:17.747Z,25.15
2019-04-10T09:44:17.278Z,22.64
2019-04-10T09:45:17.761Z,22.75
2019-04-10T09:46:18.206Z,22.45
2019-04-10T09:47:18.390Z,22.16
2019-04-10T09:48:17.235Z,24.32
2019-04-10T09:49:17.228Z,24.07
2019-04-10T09:50:17.317Z,26.61
2019-04-10T09:51:19.442Z,26.14
2019-04-10T09:52:17.216Z,26.58
2019-04-10T09:53:17.216Z,25.79
2019-04-10T09:54:17.501Z,26.46
2019-04-10T09:55:18.010Z,27.66
2019-04-10T09:56:17.311Z,26.78
2019-04-10T09:57:17.845Z,29.02
2019-04-10T09:58:17.597Z,29.41
2019-04-10T09:59:18.065Z,28.07
2019-04-10T10:00:17.106Z,26.97
2019-04-10T10:01:17.902Z,28.82
2019-04-10T10:02:17.659Z,28.39
2019-04-10T10:03:17.357Z,26.63
2019-04-10T10:04:17.360Z,26.40
2019-04-10T10:05:18.116Z,25.38
2019-04-10T10:06:24.279Z,26.07
2019-04-10T10:07:18.609Z,26.81
2019-04-10T10:08:17.057Z,28.11
2019-04-10T10:09:17.629Z,26.52
2019-04-10T10:10:17.240Z,29.06
2019-04-10T10:11:18.056Z,29.66
2019-04-10T10:12:17.888Z,28.02
2019-04-10T10:13:17.272Z,27.95
2019-04-10T10:14:16.975Z,28.96
2019-04-10T10:15:16.955Z,29.79
2019-04-10T10:16:17.045Z,29.58
2019-04-10T10:17:16.951Z,30.08
2019-04-10T10:18:17.227Z,29.82
2019-04-10T10:19:16.919Z,30.21
2019-04-10T10:20:16.885Z,29.52
2019-04-10T10:21:16.878Z,28.92
2019-04-10T10:22:16.943Z,29.11
2019-04-10T10:23:17.913Z,29.88
2019-04-10T10:24:16.860Z,28.14
2019-04-10T10:25:17.395Z,28.15
2019-04-10T10:26:17.564Z,28.06
2019-04-10T10:27:17.750Z,28.35
2019-04-10T10:28:16.800Z,27.23
2019-04-10T10:29:17.669Z,28.44
2019-04-10T10:30:17.624Z,28.45
2019-04-10T10:31:16.875Z,29.39
2019-04-10T10:32:17.098Z,29.90
2019-04-10T10:33:17.453Z,29.06
2019-04-10T10:34:16.748Z,28.64
2019-04-10T10:35:16.852Z,29.00
2019-04-10T10:36:17.805Z,26.88
2019-04-10T10:37:16.774Z,27.28
2019-04-10T10:38:16.734Z,27.41
2019-04-10T10:39:17.320Z,26.88
2019-04-10T10:40:17.209Z,27.00
2019-04-10T10:41:16.654Z,27.56
2019-04-10T10:42:16.652Z,26.14
2019-04-10T10:43:16.633Z,26.20
2019-04-10T10:44:17.326Z,27.61
2019-04-10T10:45:16.637Z,28.07
2019-04-10T10:46:17.532Z,26.73
2019-04-10T10:47:16.585Z,26.40
2019-04-10T10:48:17.527Z,26.59
2019-04-10T10:49:16.567Z,25.78
2019-04-10T10:50:17.178Z,25.92
2019-04-10T10:51:16.543Z,26.42
2019-04-10T10:52:17.523Z,25.93
2019-04-10T10:53:16.517Z,26.57
2019-04-10T10:54:16.890Z,26.77
2019-04-10T10:55:16.522Z,27.80
2019-04-10T10:56:16.487Z,27.09
2019-04-10T10:57:17.241Z,26.72
2019-04-10T10:58:16.467Z,27.32
2019-04-10T10:59:17.510Z,26.47
2019-04-10T11:00:16.989Z,26.22
2019-04-10T11:01:16.432Z,25.78
2019-04-10T11:02:17.119Z,24.90
2019-04-10T11:03:16.410Z,26.21
2019-04-10T11:04:16.397Z,26.16
2019-04-10T11:05:16.971Z,26.51
2019-04-10T11:06:17.738Z,26.81
2019-04-10T11:07:16.367Z,26.12
2019-04-10T11:08:17.467Z,28.03
2019-04-10T11:09:16.347Z,30.32
2019-04-10T11:10:21.833Z,27.28
2019-04-10T11:11:17.340Z,26.16
2019-04-10T11:12:16.313Z,27.29
2019-04-10T11:13:16.704Z,28.22
2019-04-10T11:14:16.294Z,26.68
2019-04-10T11:15:16.293Z,27.64
2019-04-10T11:16:16.983Z,28.23
2019-04-10T11:17:16.257Z,28.41
2019-04-10T11:18:16.246Z,28.01
2019-04-10T11:19:17.282Z,28.30
2019-04-10T11:20:17.645Z,25.77
2019-04-10T11:21:16.779Z,27.85
2019-04-10T11:22:19.975Z,27.95
2019-04-10T11:23:18.173Z,28.25
2019-04-10T11:24:17.275Z,28.02
2019-04-10T11:25:16.169Z,28.09
2019-04-10T11:26:20.564Z,26.15
2019-04-10T11:27:18.036Z,26.42
2019-04-10T11:28:16.378Z,26.10
2019-04-10T11:29:17.465Z,25.89
2019-04-10T11:30:16.170Z,25.31
2019-04-10T11:31:17.330Z,26.15
2019-04-10T11:32:16.113Z,27.67
2019-04-10T11:33:17.570Z,26.53
2019-04-10T11:34:16.508Z,26.72
2019-04-10T11:35:17.408Z,27.00
2019-04-10T11:36:17.443Z,27.30
2019-04-10T11:37:24.171Z,25.20
2019-04-10T11:38:17.595Z,25.70
2019-04-10T11:39:22.735Z,26.17
2019-04-10T11:40:18.038Z,25.36
2019-04-10T11:41:18.919Z,26.26
2019-04-10T11:42:16.009Z,25.96
2019-04-10T11:43:16.671Z,24.69
2019-04-10T11:44:17.190Z,25.71
2019-04-10T11:45:17.036Z,26.23
2019-04-10T11:46:16.921Z,26.32
2019-04-10T11:47:17.413Z,26.12
2019-04-10T11:48:18.302Z,25.31
2019-04-10T11:49:17.806Z,25.60
2019-04-10T11:50:18.386Z,25.40
2019-04-10T11:51:16.479Z,25.41
2019-04-10T11:52:17.330Z,25.71
2019-04-10T11:53:17.763Z,26.52
2019-04-10T11:54:18.116Z,25.52
2019-04-10T11:56:19.143Z,27.70
2019-04-10T11:57:16.701Z,26.79
2019-04-10T11:58:17.793Z,27.97
2019-04-10T11:59:21.160Z,27.37
2019-04-10T12:00:19.844Z,28.17
2019-04-10T12:01:17.556Z,27.37
2019-04-10T12:02:20.460Z,28.55
2019-04-10T12:03:18.172Z,27.63
2019-04-10T12:04:19.218Z,26.42
2019-04-10T12:06:18.535Z,27.03
2019-04-10T12:08:36.204Z,26.01
2019-04-10T12:09:58.946Z,26.47
2019-04-10T12:11:19.834Z,25.86
2019-04-10T12:12:15.652Z,26.06
2019-04-10T12:13:17.075Z,25.24
2019-04-10T12:14:15.630Z,25.24
2019-04-10T12:15:17.081Z,25.76
2019-04-10T12:16:16.737Z,26.63
2019-04-10T12:17:16.030Z,26.25
2019-04-10T12:18:16.155Z,26.82
2019-04-10T12:19:15.570Z,26.70
2019-04-10T12:20:16.647Z,26.39
2019-04-10T12:21:15.768Z,26.08
2019-04-10T12:22:15.737Z,25.97
2019-04-10T12:23:16.681Z,25.56
2019-04-10T12:24:16.206Z,26.26
2019-04-10T12:25:15.527Z,25.25
2019-04-10T12:26:15.820Z,25.14
2019-04-10T12:27:15.484Z,25.46
2019-04-10T12:28:15.868Z,24.85
2019-04-10T12:29:16.260Z,25.46
2019-04-10T12:30:15.447Z,24.89
2019-04-10T12:31:15.639Z,25.29
2019-04-10T12:32:15.430Z,25.79
2019-04-10T12:33:15.434Z,25.20
2019-04-10T12:34:16.262Z,26.31
2019-04-10T12:35:15.400Z,25.78
2019-04-10T12:36:15.382Z,25.18
2019-04-10T12:37:15.447Z,25.16
2019-04-10T12:38:15.385Z,25.16
2019-04-10T12:39:16.213Z,24.95
2019-04-10T12:40:15.340Z,25.45
2019-04-10T12:41:15.336Z,24.54
2019-04-10T12:42:16.396Z,25.44
2019-04-10T12:43:15.322Z,23.76
2019-04-10T12:44:15.839Z,24.08
2019-04-10T12:45:15.779Z,24.69
2019-04-10T12:46:15.272Z,25.21
2019-04-10T12:47:15.524Z,26.34
2019-04-10T12:48:15.269Z,26.37
2019-04-10T12:49:15.241Z,26.86
2019-04-10T12:50:16.192Z,26.64
2019-04-10T12:51:15.217Z,25.74
2019-04-10T12:52:16.344Z,26.65
2019-04-10T12:53:15.637Z,26.53
2019-04-10T12:54:15.183Z,26.31
2019-04-10T12:55:15.171Z,26.10
2019-04-10T12:56:15.769Z,25.70